createdAt,value
2017-11-08T00:01:47.072Z,81.90
2017-11-08T00:04:15.335Z,82.20
2017-11-08T00:06:42.773Z,83.10
2017-11-08T00:09:10.301Z,82.10
2017-11-08T00:11:37.748Z,83.30
2017-11-08T00:14:05.200Z,83.00
2017-11-08T00:16:32.650Z,82.40
2017-11-08T00:19:00.085Z,82.90
2017-11-08T00:21:32.432Z,83.50
2017-11-08T00:23:59.874Z,83.50
2017-11-08T00:26:27.430Z,83.00
2017-11-08T00:28:54.874Z,82.50
2017-11-08T00:31:22.305Z,82.10
2017-11-08T00:33:49.750Z,82.30
2017-11-08T00:36:17.195Z,82.00
2017-11-08T00:38:44.634Z,81.90
2017-11-08T00:41:12.101Z,82.20
2017-11-08T00:43:39.528Z,82.20
2017-11-08T00:46:07.029Z,82.60
2017-11-08T00:48:34.487Z,82.30
2017-11-08T00:51:02.688Z,82.30
2017-11-08T00:53:30.137Z,82.30
2017-11-08T00:55:57.559Z,82.30
2017-11-08T00:58:25.004Z,82.50
2017-11-08T01:00:52.511Z,82.50
2017-11-08T01:03:20.736Z,82.40
2017-11-08T01:05:48.176Z,82.40
2017-11-08T01:08:15.653Z,82.60
2017-11-08T01:10:43.097Z,81.60
2017-11-08T01:13:10.617Z,81.70
2017-11-08T01:15:38.057Z,81.80
2017-11-08T01:18:05.484Z,81.00
2017-11-08T01:20:32.924Z,81.10
2017-11-08T01:23:00.360Z,81.80
2017-11-08T01:25:27.812Z,81.00
2017-11-08T01:27:55.259Z,80.50
2017-11-08T01:30:22.710Z,81.70
2017-11-08T01:32:50.143Z,79.90
2017-11-08T01:35:17.574Z,79.40
2017-11-08T01:37:46.947Z,79.50
2017-11-08T01:40:18.932Z,78.60
2017-11-08T01:42:46.376Z,78.70
2017-11-08T01:45:13.820Z,79.00
2017-11-08T01:47:41.260Z,79.20
2017-11-08T01:50:08.691Z,79.30
2017-11-08T03:14:33.324Z,81.10
2017-11-08T03:17:00.761Z,85.60
2017-11-08T03:19:28.207Z,85.80
2017-11-08T03:21:55.661Z,85.50
2017-11-08T03:24:23.156Z,85.10
2017-11-08T03:26:51.352Z,84.20
2017-11-08T03:29:18.797Z,84.20
2017-11-08T03:31:46.240Z,82.70
2017-11-08T03:34:13.671Z,83.60
2017-11-08T03:36:41.117Z,83.40
2017-11-08T03:39:08.550Z,81.30
2017-11-08T03:41:36.005Z,81.60
2017-11-08T03:44:03.432Z,80.70
2017-11-08T03:46:30.884Z,79.60
2017-11-08T03:48:58.316Z,79.40
2017-11-08T03:51:25.804Z,78.50
2017-11-08T03:53:53.258Z,78.90
2017-11-08T03:56:20.717Z,78.80
2017-11-08T03:58:48.149Z,77.90
2017-11-08T04:01:15.588Z,77.70
2017-11-08T04:03:43.034Z,77.70
2017-11-08T04:06:10.467Z,77.40
2017-11-08T04:08:37.927Z,77.90
2017-11-08T04:11:05.366Z,77.60
2017-11-08T04:13:32.861Z,77.30
2017-11-08T04:16:00.301Z,76.80
2017-11-08T04:18:27.774Z,77.20
2017-11-08T04:20:55.209Z,77.30
2017-11-08T04:23:22.636Z,77.30
2017-11-08T04:25:50.253Z,78.70
2017-11-08T04:28:18.468Z,77.40
2017-11-08T04:30:45.928Z,77.30
2017-11-08T04:33:13.356Z,76.80
2017-11-08T04:35:40.926Z,76.80
2017-11-08T04:38:08.452Z,76.90
2017-11-08T04:40:35.912Z,76.90
2017-11-08T04:43:03.459Z,76.80
2017-11-08T04:45:30.893Z,77.30
2017-11-08T04:47:58.358Z,77.20
2017-11-08T04:50:25.820Z,77.40
2017-11-08T04:52:54.051Z,77.10
2017-11-08T04:55:21.507Z,77.10
2017-11-08T04:57:48.952Z,76.70
2017-11-08T05:00:17.149Z,76.70
2017-11-08T05:02:44.608Z,76.60
2017-11-08T05:05:12.036Z,76.40
2017-11-08T05:07:39.469Z,76.70
2017-11-08T05:10:06.921Z,76.30
2017-11-08T05:12:34.343Z,76.50
2017-11-08T05:15:01.791Z,75.60
2017-11-08T05:17:29.214Z,75.70
2017-11-08T05:19:56.669Z,75.70
2017-11-08T05:22:24.081Z,76.70
2017-11-08T05:24:51.580Z,75.20
2017-11-08T05:27:19.005Z,75.90
2017-11-08T05:29:46.453Z,75.80
2017-11-08T05:32:13.884Z,74.90
2017-11-08T05:34:41.317Z,75.30
2017-11-08T05:37:08.788Z,74.80
2017-11-08T05:39:36.248Z,74.20
2017-11-08T05:42:03.770Z,74.70
2017-11-08T05:44:31.213Z,74.40
2017-11-08T05:46:58.656Z,74.90
2017-11-08T05:49:26.088Z,75.10
2017-11-08T05:51:53.531Z,74.90
2017-11-08T05:54:21.376Z,74.50
2017-11-08T05:56:48.840Z,74.50
2017-11-08T05:59:16.264Z,74.30
2017-11-08T06:01:43.684Z,74.20
2017-11-08T06:04:11.133Z,74.40
2017-11-08T06:06:38.561Z,74.60
2017-11-08T06:09:05.992Z,73.60
2017-11-08T06:11:33.425Z,73.70
2017-11-08T06:14:01.624Z,74.10
2017-11-08T06:16:29.063Z,74.10
2017-11-08T06:18:56.566Z,74.00
2017-11-08T06:21:24.761Z,73.60
2017-11-08T06:23:52.198Z,73.60
2017-11-08T06:26:19.639Z,73.90
2017-11-08T06:28:47.061Z,74.40
2017-11-08T06:31:14.719Z,74.30
2017-11-08T06:33:42.153Z,74.40
2017-11-08T06:36:09.628Z,73.80
2017-11-08T06:38:37.068Z,73.80
2017-11-08T06:41:04.497Z,73.30
2017-11-08T06:43:31.932Z,73.70
2017-11-08T06:45:59.364Z,73.90
2017-11-08T06:48:26.848Z,73.10
2017-11-08T06:50:54.297Z,72.30
2017-11-08T06:53:21.728Z,73.60
2017-11-08T06:55:54.912Z,73.20
2017-11-08T06:58:22.520Z,72.60
2017-11-08T07:00:49.991Z,72.90
2017-11-08T07:03:17.413Z,72.40
2017-11-08T07:05:44.927Z,72.60
2017-11-08T07:08:13.164Z,74.20
2017-11-08T07:10:40.628Z,74.20
2017-11-08T07:13:08.077Z,74.70
2017-11-08T07:15:35.504Z,74.00
2017-11-08T07:18:02.937Z,75.00
2017-11-08T07:20:30.377Z,74.30
2017-11-08T07:22:58.573Z,74.30
2017-11-08T07:25:26.032Z,74.30
2017-11-08T07:27:53.459Z,75.30
2017-11-08T07:30:20.895Z,75.10
2017-11-08T07:32:48.360Z,75.90
2017-11-08T07:35:15.801Z,76.10
2017-11-08T07:37:43.224Z,75.80
2017-11-08T07:40:10.679Z,74.60
2017-11-08T07:42:38.124Z,75.50
2017-11-08T07:45:05.587Z,73.70
2017-11-08T07:47:33.021Z,73.50
2017-11-08T07:50:00.465Z,71.90
2017-11-08T07:52:27.899Z,71.20
2017-11-08T07:55:01.016Z,72.00
2017-11-08T07:57:29.219Z,71.20
2017-11-08T07:59:56.656Z,71.20
2017-11-08T08:02:24.089Z,70.20
2017-11-08T08:04:51.585Z,70.30
2017-11-08T08:07:19.976Z,70.10
2017-11-08T08:09:50.224Z,70.10
2017-11-08T08:12:17.651Z,69.30
2017-11-08T08:14:45.109Z,69.50
2017-11-08T08:17:12.545Z,69.60
2017-11-08T08:19:40.100Z,69.00
2017-11-08T08:22:07.575Z,69.20
2017-11-08T08:24:35.108Z,68.50
2017-11-08T08:27:08.304Z,68.70
2017-11-08T08:29:39.105Z,68.80
2017-11-08T08:32:06.538Z,68.70
2017-11-08T08:34:34.045Z,69.00
2017-11-08T08:37:01.480Z,68.50
2017-11-08T08:39:28.946Z,69.20
2017-11-08T08:41:56.412Z,67.00
2017-11-08T08:44:23.848Z,67.20
2017-11-08T08:46:52.056Z,67.40
2017-11-08T08:49:20.257Z,66.60
2017-11-08T08:51:47.713Z,66.60
2017-11-08T08:54:15.141Z,66.70
2017-11-08T08:56:42.602Z,66.80
2017-11-08T08:59:10.032Z,67.60
2017-11-08T09:01:37.464Z,68.10
2017-11-08T09:04:04.921Z,66.50
2017-11-08T09:06:32.336Z,67.10
2017-11-08T09:08:59.776Z,66.30
2017-11-08T09:11:27.222Z,67.10
2017-11-08T09:13:54.684Z,67.70
2017-11-08T09:16:22.140Z,65.90
2017-11-08T09:18:49.576Z,66.20
2017-11-08T09:21:17.013Z,66.20
2017-11-08T09:23:44.448Z,66.30
2017-11-08T09:26:26.760Z,66.10
2017-11-08T09:28:55.020Z,66.20
2017-11-08T09:31:28.565Z,66.60
2017-11-08T09:33:56.032Z,66.50
2017-11-08T09:36:23.469Z,66.50
2017-11-08T09:38:50.914Z,66.90
2017-11-08T09:41:18.340Z,67.50
2017-11-08T09:43:45.784Z,67.60
2017-11-08T09:46:14.053Z,68.10
2017-11-08T09:48:41.530Z,68.10
2017-11-08T09:51:10.752Z,66.90
2017-11-08T09:53:38.233Z,66.90
2017-11-08T09:56:07.481Z,66.70
2017-11-08T09:58:34.916Z,67.00
2017-11-08T10:01:03.131Z,67.50
2017-11-08T10:03:30.596Z,67.50
2017-11-08T10:05:58.036Z,67.10
2017-11-08T10:08:25.478Z,68.20
2017-11-08T10:10:58.861Z,67.70
2017-11-08T10:13:27.265Z,67.50
2017-11-08T10:15:54.704Z,67.30
2017-11-08T10:18:22.141Z,66.60
2017-11-08T10:20:49.687Z,66.80
2017-11-08T10:23:20.074Z,67.10
2017-11-08T10:25:47.511Z,67.50
2017-11-08T10:28:14.960Z,67.70
2017-11-08T10:30:42.405Z,65.60
2017-11-08T10:33:09.877Z,65.70
2017-11-08T10:35:38.077Z,66.10
2017-11-08T10:38:05.516Z,65.70
2017-11-08T10:40:32.977Z,65.60
2017-11-08T10:43:00.369Z,65.30
2017-11-08T10:45:27.808Z,65.30
2017-11-08T10:47:55.241Z,65.30
2017-11-08T10:50:22.727Z,65.30
2017-11-08T10:52:55.930Z,64.50
2017-11-08T10:55:24.165Z,64.30
2017-11-08T10:57:51.600Z,64.30
2017-11-08T11:00:24.727Z,64.00
2017-11-08T11:02:59.132Z,64.20
2017-11-08T11:05:26.570Z,64.70
2017-11-08T11:07:54.770Z,66.30
2017-11-08T11:10:22.197Z,65.50
2017-11-08T11:12:49.677Z,65.80
2017-11-08T11:15:17.109Z,65.50
2017-11-08T11:17:44.541Z,65.60
2017-11-08T11:20:11.984Z,64.40
2017-11-08T11:22:39.430Z,65.50
2017-11-08T11:25:06.881Z,65.10
2017-11-08T11:27:34.318Z,64.40
2017-11-08T11:30:02.537Z,63.90
2017-11-08T11:32:32.770Z,64.20
2017-11-08T11:35:00.237Z,64.20
2017-11-08T11:37:30.473Z,63.90
2017-11-08T11:39:57.917Z,63.00
2017-11-08T11:42:25.367Z,63.00
2017-11-08T11:44:52.815Z,62.10
2017-11-08T11:47:20.264Z,63.50
2017-11-08T11:49:48.502Z,63.80
2017-11-08T11:52:15.965Z,63.80
2017-11-08T11:54:43.402Z,64.30
2017-11-08T11:57:13.247Z,63.10
2017-11-08T11:59:41.458Z,63.60
2017-11-08T12:02:08.934Z,63.60
2017-11-08T12:04:36.373Z,63.60
2017-11-08T12:07:03.819Z,64.10
2017-11-08T12:09:31.278Z,63.40
2017-11-08T12:11:59.483Z,63.80
2017-11-08T12:14:26.928Z,63.80
2017-11-08T12:16:57.305Z,63.40
2017-11-08T12:19:24.769Z,63.50
2017-11-08T12:21:52.195Z,63.80
2017-11-08T12:24:19.639Z,64.30
2017-11-08T12:26:47.097Z,64.50
2017-11-08T12:29:14.757Z,65.20
2017-11-08T12:31:42.295Z,64.80
2017-11-08T12:34:10.635Z,64.90
2017-11-08T12:36:38.072Z,64.50
2017-11-08T12:39:05.581Z,64.90
2017-11-08T12:41:35.876Z,65.20
2017-11-08T12:44:03.314Z,64.90
2017-11-08T12:46:36.697Z,64.60
2017-11-08T12:49:04.146Z,64.00
2017-11-08T12:51:31.588Z,62.90
2017-11-08T12:53:59.026Z,63.50
2017-11-08T12:56:26.483Z,63.90
2017-11-08T12:58:55.384Z,63.20
2017-11-08T13:01:22.824Z,63.20
2017-11-08T13:03:51.033Z,62.90
2017-11-08T13:06:18.475Z,62.90
2017-11-08T13:08:45.950Z,62.60
2017-11-08T13:11:18.984Z,62.70
2017-11-08T13:13:46.420Z,63.50
2017-11-08T13:16:13.894Z,64.20
2017-11-08T13:18:41.347Z,63.50
2017-11-08T13:21:08.788Z,63.00
2017-11-08T13:23:36.217Z,62.40
2017-11-08T13:26:03.658Z,62.60
2017-11-08T13:28:31.302Z,63.00
2017-11-08T13:30:58.738Z,62.10
2017-11-08T13:33:26.224Z,62.10
2017-11-08T13:35:54.444Z,62.90
2017-11-08T13:38:21.940Z,63.00
2017-11-08T13:40:50.561Z,63.10
2017-11-08T13:43:18.279Z,63.10
2017-11-08T13:45:52.619Z,63.40
2017-11-08T13:48:20.093Z,63.00
2017-11-08T13:50:47.598Z,63.10
2017-11-08T13:53:15.077Z,64.50
2017-11-08T13:55:42.529Z,63.50
2017-11-08T13:58:09.980Z,63.20
2017-11-08T14:00:38.194Z,64.50
2017-11-08T14:03:05.656Z,64.50
2017-11-08T14:05:33.199Z,64.70
2017-11-08T14:08:00.643Z,64.60
2017-11-08T14:10:28.182Z,64.50
2017-11-08T14:12:55.621Z,64.20
2017-11-08T14:15:23.058Z,64.30
2017-11-08T14:17:50.565Z,64.30
2017-11-08T14:20:18.031Z,64.30
2017-11-08T14:22:45.521Z,64.90
2017-11-08T14:25:13.719Z,64.40
2017-11-08T14:27:41.198Z,64.40
2017-11-08T14:30:08.633Z,64.80
2017-11-08T14:32:39.869Z,64.60
2017-11-08T14:35:07.297Z,64.20
2017-11-08T14:37:34.757Z,64.00
2017-11-08T14:40:02.209Z,62.80
2017-11-08T14:42:35.328Z,62.50
2017-11-08T14:45:02.788Z,63.00
2017-11-08T14:47:30.250Z,63.10
2017-11-08T14:49:57.672Z,63.00
2017-11-08T14:52:25.121Z,62.20
2017-11-08T14:54:52.605Z,62.20
2017-11-08T14:57:20.045Z,62.50
2017-11-08T14:59:47.500Z,62.50
2017-11-08T15:02:14.935Z,63.40
2017-11-08T15:04:43.140Z,63.90
2017-11-08T15:07:10.585Z,63.90
2017-11-08T15:09:38.040Z,64.10
2017-11-08T15:12:05.474Z,64.30
2017-11-08T15:14:39.585Z,64.80
2017-11-08T15:17:07.015Z,64.60
2017-11-08T15:19:49.186Z,65.00
2017-11-08T15:22:16.629Z,65.10
2017-11-08T15:24:44.071Z,64.50
2017-11-08T15:27:11.501Z,64.80
2017-11-08T15:29:39.137Z,64.30
2017-11-08T15:32:07.338Z,63.60
2017-11-08T15:34:34.871Z,63.70
2017-11-08T15:37:02.296Z,63.90
2017-11-08T15:39:30.510Z,63.70
2017-11-08T15:41:57.958Z,63.60
2017-11-08T15:44:25.394Z,63.70
2017-11-08T15:46:54.673Z,64.50
2017-11-08T15:49:22.111Z,64.00
2017-11-08T15:51:49.541Z,64.00
2017-11-08T15:54:17.007Z,64.00
2017-11-08T15:56:44.441Z,64.70
2017-11-08T15:59:11.888Z,64.20
2017-11-08T16:01:42.242Z,64.50
2017-11-08T16:04:12.328Z,65.10
2017-11-08T16:06:39.769Z,65.10
2017-11-08T16:09:10.333Z,65.50
2017-11-08T16:11:37.786Z,65.20
2017-11-08T16:14:05.234Z,65.30
2017-11-08T16:16:32.672Z,65.20
2017-11-08T16:19:03.085Z,65.50
2017-11-08T16:21:31.288Z,65.90
2017-11-08T16:23:58.736Z,65.50
2017-11-08T16:26:26.252Z,65.30
2017-11-08T16:28:55.030Z,65.60
2017-11-08T16:31:23.983Z,65.60
2017-11-08T16:33:51.432Z,65.60
2017-11-08T16:36:18.866Z,65.10
2017-11-08T16:38:46.392Z,65.40
2017-11-08T16:41:13.830Z,65.10
2017-11-08T16:43:41.274Z,65.00
2017-11-08T16:46:08.749Z,65.20
2017-11-08T16:48:36.189Z,65.20
2017-11-08T16:51:03.654Z,64.50
2017-11-08T16:53:32.006Z,64.80
2017-11-08T16:55:59.542Z,64.80
2017-11-08T16:58:27.087Z,64.70
2017-11-08T17:00:54.535Z,65.00
2017-11-08T17:03:21.964Z,64.10
2017-11-08T17:05:49.420Z,64.10
2017-11-08T17:08:16.872Z,64.00
2017-11-08T17:10:44.400Z,64.00
2017-11-08T17:13:12.129Z,64.00
2017-11-08T17:15:39.610Z,63.90
2017-11-08T17:18:07.054Z,64.30
2017-11-08T17:20:35.269Z,64.30
2017-11-08T17:23:03.120Z,64.30
2017-11-08T17:25:30.622Z,64.60
2017-11-08T17:27:58.853Z,63.90
2017-11-08T17:30:26.303Z,63.90
2017-11-08T17:32:53.746Z,63.40
2017-11-08T17:35:21.189Z,63.30
2017-11-08T17:37:48.638Z,63.50
2017-11-08T17:40:16.086Z,63.90
2017-11-08T17:42:43.520Z,64.10
2017-11-08T17:45:10.961Z,64.80
2017-11-08T17:47:38.415Z,64.90
2017-11-08T17:50:05.856Z,64.70
2017-11-08T17:52:33.309Z,65.70
2017-11-08T17:55:02.805Z,64.30
2017-11-08T17:57:31.124Z,64.60
2017-11-08T17:59:58.614Z,64.60
2017-11-08T18:02:26.813Z,64.50
2017-11-08T18:04:54.282Z,64.50
2017-11-08T18:07:21.717Z,64.80
2017-11-08T18:09:49.167Z,64.90
2017-11-08T18:12:16.614Z,65.00
2017-11-08T18:14:44.054Z,65.30
2017-11-08T18:17:11.510Z,64.70
2017-11-08T18:19:39.729Z,64.80
2017-11-08T18:22:07.163Z,65.50
2017-11-08T18:24:34.608Z,65.10
2017-11-08T18:27:02.054Z,64.90
2017-11-08T18:29:29.507Z,64.70
2017-11-08T18:31:56.949Z,65.00
2017-11-08T18:34:24.378Z,64.90
2017-11-08T18:36:51.822Z,64.80
2017-11-08T18:39:19.252Z,65.00
2017-11-08T18:41:46.705Z,65.20
2017-11-08T18:44:14.911Z,65.70
2017-11-08T18:46:43.114Z,65.30
2017-11-08T18:49:10.549Z,65.30
2017-11-08T18:51:37.996Z,65.10
2017-11-08T18:54:05.457Z,65.00
2017-11-08T18:56:36.327Z,65.30
2017-11-08T18:59:04.034Z,65.30
2017-11-08T19:01:31.473Z,65.10
2017-11-08T19:03:59.443Z,64.80
2017-11-08T19:06:26.889Z,65.30
2017-11-08T19:08:54.389Z,65.20
2017-11-08T19:11:22.943Z,65.40
2017-11-08T19:13:50.385Z,65.30
2017-11-08T19:16:17.848Z,65.40
2017-11-08T19:18:45.386Z,65.70
2017-11-08T19:21:12.849Z,65.50
2017-11-08T19:23:40.296Z,65.50
2017-11-08T19:26:07.801Z,66.10
2017-11-08T19:28:35.237Z,65.30
2017-11-08T19:31:02.684Z,65.70
2017-11-08T19:33:30.205Z,65.60
2017-11-08T19:35:58.524Z,66.10
2017-11-08T19:38:26.001Z,66.10
2017-11-08T19:40:53.463Z,66.20
2017-11-08T19:43:20.974Z,66.20
2017-11-08T19:45:49.918Z,66.10
2017-11-08T19:48:17.383Z,66.10
2017-11-08T19:50:44.808Z,66.10
2017-11-08T19:53:12.260Z,66.30
2017-11-08T19:55:39.717Z,66.40
2017-11-08T19:58:07.158Z,67.20
2017-11-08T20:00:34.594Z,66.70
2017-11-08T20:03:02.030Z,66.70
2017-11-08T20:05:29.480Z,67.20
2017-11-08T20:07:57.842Z,67.70
2017-11-08T20:10:25.282Z,67.60
2017-11-08T20:12:52.773Z,67.80
2017-11-08T20:15:21.094Z,68.60
2017-11-08T20:17:48.526Z,68.60
2017-11-08T20:20:15.962Z,68.90
2017-11-08T20:22:43.421Z,68.60
2017-11-08T20:25:10.876Z,68.90
2017-11-08T20:27:38.337Z,69.30
2017-11-08T20:30:05.787Z,69.30
2017-11-08T20:32:34.069Z,69.80
2017-11-08T20:35:02.296Z,69.70
2017-11-08T20:37:29.741Z,69.70
2017-11-08T20:39:57.187Z,69.70
2017-11-08T20:42:24.639Z,69.60
2017-11-08T20:44:52.077Z,69.70
2017-11-08T20:47:19.724Z,69.80
2017-11-08T20:49:47.170Z,70.00
2017-11-08T20:52:14.649Z,70.10
2017-11-08T20:54:42.094Z,69.80
2017-11-08T20:57:09.529Z,69.90
2017-11-08T20:59:36.981Z,70.50
2017-11-08T21:02:04.418Z,70.50
2017-11-08T21:04:31.918Z,70.40
2017-11-08T21:06:59.417Z,70.50
2017-11-08T21:09:26.941Z,70.30
2017-11-08T21:11:54.437Z,70.60
2017-11-08T21:14:21.905Z,70.90
2017-11-08T21:16:50.108Z,70.70
2017-11-08T21:19:17.545Z,70.60
2017-11-08T21:21:45.993Z,70.70
2017-11-08T21:24:13.460Z,70.90
2017-11-08T21:26:40.897Z,70.70
2017-11-08T21:29:08.334Z,70.70
2017-11-08T21:31:35.777Z,70.80
2017-11-08T21:34:03.205Z,70.70
2017-11-08T21:36:30.657Z,71.20
2017-11-08T21:38:58.113Z,71.30
2017-11-08T21:41:25.540Z,71.00
2017-11-08T21:43:52.985Z,71.40
2017-11-08T21:46:20.422Z,71.40
2017-11-08T21:48:47.856Z,71.10
2017-11-08T21:51:15.284Z,71.00
2017-11-08T21:53:42.748Z,70.90
2017-11-08T21:56:10.196Z,71.00
2017-11-08T21:58:37.745Z,71.30
2017-11-08T22:01:05.193Z,71.30
2017-11-08T22:03:32.675Z,71.10
2017-11-08T22:06:00.130Z,71.10
2017-11-08T22:08:28.337Z,71.40
2017-11-08T22:10:55.786Z,71.40
2017-11-08T22:13:23.993Z,70.90
2017-11-08T22:15:52.237Z,72.00
2017-11-08T22:18:19.688Z,72.00
2017-11-08T22:20:47.145Z,72.10
2017-11-08T22:23:15.355Z,72.20
2017-11-08T22:25:42.814Z,72.20
2017-11-08T22:28:10.253Z,72.20
2017-11-08T22:30:37.684Z,72.10
2017-11-08T22:33:05.141Z,72.50
2017-11-08T22:35:32.591Z,72.80
2017-11-08T22:38:00.065Z,72.60
2017-11-08T22:40:28.295Z,72.90
2017-11-08T22:42:55.772Z,72.90
2017-11-08T22:45:24.022Z,73.50
2017-11-08T22:47:52.248Z,73.00
2017-11-08T22:50:19.706Z,73.00
2017-11-08T22:52:47.334Z,73.10
2017-11-08T22:55:14.798Z,72.90
2017-11-08T22:57:42.264Z,73.00
2017-11-08T23:00:10.543Z,73.10
2017-11-08T23:02:37.995Z,73.10
2017-11-08T23:05:05.428Z,73.20
2017-11-08T23:07:32.942Z,73.80
2017-11-08T23:10:00.381Z,73.90
2017-11-08T23:12:27.829Z,74.50
2017-11-08T23:14:55.269Z,74.10
2017-11-08T23:17:22.718Z,74.60
2017-11-08T23:19:50.923Z,73.70
2017-11-08T23:22:18.635Z,73.60
2017-11-08T23:24:46.887Z,73.70
2017-11-08T23:27:14.329Z,73.80
2017-11-08T23:29:41.792Z,73.90
2017-11-08T23:32:09.996Z,75.30
2017-11-08T23:34:37.480Z,75.30
2017-11-08T23:37:05.004Z,75.10
2017-11-08T23:39:32.605Z,74.70
2017-11-08T23:42:00.051Z,74.30
2017-11-08T23:44:27.500Z,74.40
2017-11-08T23:46:54.945Z,74.70
2017-11-08T23:49:22.597Z,74.80
2017-11-08T23:51:50.066Z,75.10
2017-11-08T23:54:17.497Z,75.20
2017-11-08T23:56:44.944Z,74.50
2017-11-08T23:59:18.048Z,74.60
